Главная страница
METAR-TAF:

METAR-TAF

Аэропорты :

Осло, Норвегия

Гардермуэн

широта: 60-12N, долгота: 011-05E, высота над уровнем моря: 208 м

Текущие метеонаблюдения

Эта сводка был подготовлена 14 минут назад, в 21:20 UTC
Ветер 6 Узел от северо-восточный
Температура 6°C
Влажность 81%
Давление 1020 hPa
Видимость 10 км и более
Отдельные облака на высоте 1700 фута
Рассеянная облачность на высоте 2200 фута

METAR: ENGM 202120Z 05006KT 9999 SCT017 BKN022 06/03 Q1020

Время: 23:34 (21:34 UTC)

Прогноз

Прогноз действительный с 20-го 18 UTC до 21-го 18 UTC
Ветер 7 Узел от северо-северо-восточный
Видимость 10 км и более
небольшая облачность на высоте 1000 фута
Рассеянная облачность на высоте 2000 фута
временами
С 20-го 18 UTC до 21-го 06 UTC
Видимость: 4000 м
Рассеянная облачность на высоте 800 фута
дождь, Морось, дымка

TAF: ENGM 2018/2118 03007KT 9999 FEW010 BKN020 TEMPO 2018/2106 4000 RADZ BR BKN008

Метеонаблюдения и прогнозы для более 4000 аэропортов (сводки METAR и TAF).

Имеющиеся станции представлены на карте желтыми и красными точками.

Чтобы увидеть название станции, наведите на нее мышь.

Затем щелкните, чтобы увидеть метеонаблюдения и метеопрогнозы.

Управление картой: чтобы увеличить масштаб, щелкните зеленые кнопки с черным крестиком; чтобы уменьшить масштаб, щелкните зеленую кнопку с тире; для просмотра соседних карт щелкайте зеленые стрелки.


METAR-TAF: